createdAt,value
2019-03-16T00:01:58.183Z,1.00
2019-03-16T00:04:28.357Z,1.00
2019-03-16T00:07:14.786Z,0.20
2019-03-16T00:09:42.521Z,0.60
2019-03-16T00:12:28.980Z,0.20
2019-03-16T00:15:15.394Z,1.00
2019-03-16T00:25:54.812Z,0.40
2019-03-16T00:28:22.366Z,0.20
2019-03-16T00:31:01.910Z,1.00
2019-03-16T00:33:19.746Z,1.80
2019-03-16T00:35:47.510Z,0.00
2019-03-16T00:38:33.920Z,3.00
2019-03-16T00:41:01.688Z,1.00
2019-03-16T00:43:48.068Z,0.00
2019-03-16T00:46:34.504Z,1.80
2019-03-16T00:51:53.346Z,0.80
2019-03-16T00:54:21.013Z,1.00
2019-03-16T00:57:07.445Z,0.60
2019-03-16T00:59:35.072Z,1.00
2019-03-16T01:02:03.251Z,0.00
2019-03-16T01:04:49.667Z,1.00
2019-03-16T01:07:36.068Z,1.40
2019-03-16T01:10:22.473Z,3.00
2019-03-16T01:12:50.183Z,1.00
2019-03-16T01:15:36.610Z,2.20
2019-03-16T01:18:04.268Z,1.00
2019-03-16T01:20:53.240Z,1.00
2019-03-16T01:23:20.905Z,1.00
2019-03-16T01:25:49.049Z,1.00
2019-03-16T01:28:18.264Z,1.40
2019-03-16T01:30:45.962Z,1.00
2019-03-16T01:33:13.641Z,2.20
2019-03-16T01:36:00.020Z,1.80
2019-03-16T01:38:27.659Z,1.00
2019-03-16T01:40:55.417Z,3.40
2019-03-16T01:43:42.132Z,2.60
2019-03-16T01:46:09.802Z,1.80
2019-03-16T01:48:56.486Z,3.20
2019-03-16T01:51:54.805Z,6.00
2019-03-16T01:54:12.203Z,4.40
2019-03-16T01:56:58.635Z,6.00
2019-03-16T02:01:59.549Z,1.80
2019-03-16T02:04:27.212Z,4.60
2019-03-16T02:06:54.985Z,3.00
2019-03-16T02:09:41.693Z,3.00
2019-03-16T02:12:09.358Z,2.20
2019-03-16T02:17:28.925Z,4.00
2019-03-16T02:19:56.605Z,3.80
2019-03-16T02:22:24.372Z,3.20
2019-03-16T02:24:52.040Z,3.60
2019-03-16T02:27:38.396Z,2.60
2019-03-16T02:30:24.812Z,1.60
2019-03-16T02:32:52.801Z,1.00
2019-03-16T02:35:39.230Z,0.00
2019-03-16T02:38:06.789Z,1.00
2019-03-16T02:40:34.520Z,0.00
2019-03-16T02:43:02.294Z,0.00
2019-03-16T02:50:42.485Z,0.00
2019-03-16T02:53:28.855Z,0.00
2019-03-16T02:56:15.305Z,0.60
2019-03-16T02:59:01.653Z,0.00
2019-03-16T03:01:29.704Z,1.80
2019-03-16T03:04:16.153Z,3.00
2019-03-16T03:06:43.821Z,0.00
2019-03-16T03:09:11.535Z,0.40
2019-03-16T03:11:57.897Z,1.00
2019-03-16T03:14:25.647Z,1.00
2019-03-16T03:16:53.307Z,0.60
2019-03-16T03:21:53.861Z,1.00
2019-03-16T03:24:21.517Z,0.00
2019-03-16T03:26:49.165Z,0.00
2019-03-16T03:29:16.945Z,1.00
2019-03-16T03:32:03.403Z,0.00
2019-03-16T03:34:49.982Z,0.00
2019-03-16T03:37:18.053Z,0.60
2019-03-16T03:40:04.680Z,0.00
2019-03-16T03:42:32.297Z,0.00
2019-03-16T03:44:59.928Z,0.00
2019-03-16T03:47:48.009Z,0.60
2019-03-16T03:50:34.433Z,0.20
2019-03-16T03:53:02.279Z,1.00
2019-03-16T03:55:48.701Z,1.00
2019-03-16T04:03:22.511Z,0.00
2019-03-16T04:06:09.278Z,0.00
2019-03-16T04:08:37.185Z,1.00
2019-03-16T04:11:04.944Z,0.00
2019-03-16T04:13:51.679Z,0.00
2019-03-16T04:16:19.530Z,0.60
2019-03-16T04:19:06.255Z,3.60
2019-03-16T04:24:39.193Z,0.00
2019-03-16T04:30:12.899Z,0.00
2019-03-16T04:32:42.234Z,0.60
2019-03-16T04:35:21.988Z,0.00
2019-03-16T04:37:39.525Z,0.00
2019-03-16T04:40:26.016Z,1.00
2019-03-16T04:45:40.407Z,1.00
2019-03-16T04:48:26.824Z,2.20
2019-03-16T04:51:13.303Z,1.00
2019-03-16T04:53:41.066Z,1.00
2019-03-16T04:56:27.554Z,1.20
2019-03-16T04:59:13.977Z,0.00
2019-03-16T05:01:41.773Z,1.80
2019-03-16T05:04:41.707Z,0.00
2019-03-16T05:06:57.651Z,1.00
2019-03-16T05:09:25.562Z,1.00
2019-03-16T05:12:11.973Z,1.00
2019-03-16T05:17:44.869Z,3.00
2019-03-16T05:22:46.726Z,1.00
2019-03-16T05:25:33.124Z,1.40
2019-03-16T05:30:34.387Z,2.60
2019-03-16T05:33:20.874Z,1.00
2019-03-16T05:36:07.357Z,1.00
2019-03-16T05:38:54.125Z,1.00
2019-03-16T05:44:08.440Z,0.00
2019-03-16T05:46:54.858Z,0.80
2019-03-16T05:49:22.704Z,0.00
2019-03-16T05:51:50.470Z,0.00
2019-03-16T05:54:36.958Z,0.80
2019-03-16T05:59:38.143Z,1.00
2019-03-16T06:02:24.561Z,0.00
2019-03-16T06:04:52.404Z,1.00
2019-03-16T06:07:38.829Z,0.00
2019-03-16T06:10:07.190Z,3.00
2019-03-16T06:12:53.924Z,1.00
2019-03-16T06:18:14.010Z,1.00
2019-03-16T06:20:44.530Z,0.00
2019-03-16T06:26:05.590Z,1.40
2019-03-16T06:36:31.037Z,3.00
2019-03-16T06:38:58.824Z,1.00
2019-03-16T06:41:26.655Z,1.80
2019-03-16T06:44:13.079Z,1.80
2019-03-16T06:46:40.861Z,1.00
2019-03-16T06:49:10.929Z,3.00
2019-03-16T06:51:38.666Z,2.60
2019-03-16T06:54:25.128Z,2.20
2019-03-16T06:59:58.025Z,1.40
2019-03-16T07:02:25.806Z,1.00
2019-03-16T07:04:53.634Z,3.00
2019-03-16T07:07:40.111Z,1.00
2019-03-16T07:10:07.895Z,1.00
2019-03-16T07:12:35.683Z,0.00
2019-03-16T07:15:22.158Z,0.60
2019-03-16T07:20:57.115Z,3.00
2019-03-16T07:23:25.492Z,2.20
2019-03-16T07:25:53.477Z,0.00
2019-03-16T07:28:21.264Z,0.00
2019-03-16T07:30:48.986Z,0.00
2019-03-16T07:33:35.476Z,0.00
2019-03-16T07:39:08.393Z,1.40
2019-03-16T07:41:54.869Z,0.40
2019-03-16T07:44:41.339Z,0.00
2019-03-16T07:47:09.176Z,0.80
2019-03-16T07:49:58.243Z,0.00
2019-03-16T07:52:26.106Z,0.20
2019-03-16T07:54:54.297Z,0.00
2019-03-16T07:57:22.065Z,0.80
2019-03-16T07:59:49.772Z,0.40
2019-03-16T08:02:17.871Z,0.20
2019-03-16T08:04:48.131Z,1.00
2019-03-16T08:07:17.565Z,0.00
2019-03-16T08:09:45.740Z,0.60
2019-03-16T08:12:13.542Z,3.00
2019-03-16T08:14:41.237Z,1.80
2019-03-16T08:17:14.247Z,3.40
2019-03-16T08:19:42.342Z,0.40
2019-03-16T08:22:10.064Z,0.60
2019-03-16T08:24:47.096Z,0.80
2019-03-16T08:27:15.156Z,3.40
2019-03-16T08:29:43.218Z,1.40
2019-03-16T08:32:14.659Z,2.60
2019-03-16T08:34:43.032Z,3.60
2019-03-16T08:37:11.109Z,3.00
2019-03-16T08:39:38.869Z,1.40
2019-03-16T08:42:06.585Z,0.00
2019-03-16T08:44:34.764Z,0.00
2019-03-16T08:47:02.479Z,1.80
2019-03-16T08:49:30.178Z,3.00
2019-03-16T08:51:57.931Z,0.20
2019-03-16T08:54:25.692Z,1.40
2019-03-16T08:56:53.904Z,1.00
2019-03-16T08:59:24.307Z,1.00
2019-03-16T09:01:51.023Z,0.80
2019-03-16T09:04:20.225Z,0.80
2019-03-16T09:06:47.919Z,0.00
2019-03-16T09:09:15.657Z,0.00
2019-03-16T09:11:43.747Z,0.60
2019-03-16T09:14:11.458Z,0.00
2019-03-16T09:16:39.219Z,0.40
2019-03-16T09:19:07.334Z,1.00
2019-03-16T09:21:37.770Z,0.00
2019-03-16T09:24:08.667Z,0.00
2019-03-16T09:26:41.113Z,1.00
2019-03-16T09:29:15.013Z,0.00
2019-03-16T09:31:41.264Z,1.40
2019-03-16T09:34:09.437Z,0.00
2019-03-16T09:36:40.384Z,0.00
2019-03-16T09:39:08.094Z,1.00
2019-03-16T09:41:36.313Z,1.00
2019-03-16T09:44:06.149Z,0.60
2019-03-16T09:46:33.933Z,1.00
2019-03-16T09:49:03.390Z,0.00
2019-03-16T09:51:34.620Z,0.00
2019-03-16T09:54:05.498Z,0.80
2019-03-16T09:56:34.055Z,0.40
2019-03-16T09:59:06.521Z,0.00
2019-03-16T10:01:40.367Z,0.00
2019-03-16T10:04:11.168Z,3.00
2019-03-16T10:06:45.657Z,1.00
2019-03-16T10:09:25.578Z,0.20
2019-03-16T10:11:54.656Z,3.00
2019-03-16T10:14:26.160Z,1.80
2019-03-16T10:16:54.409Z,2.60
2019-03-16T10:19:22.195Z,2.20
2019-03-16T10:21:49.874Z,1.00
2019-03-16T10:24:22.089Z,4.00
2019-03-16T10:26:47.396Z,3.60
2019-03-16T10:29:15.185Z,2.60
2019-03-16T10:31:43.188Z,3.80
2019-03-16T10:34:12.203Z,2.60
2019-03-16T10:36:39.939Z,3.00
2019-03-16T10:39:08.077Z,3.00
2019-03-16T10:41:36.182Z,0.60
2019-03-16T10:44:04.317Z,2.80
2019-03-16T10:46:38.157Z,1.00
2019-03-16T10:49:05.900Z,1.00
2019-03-16T10:51:33.681Z,1.00
2019-03-16T10:54:01.806Z,2.00
2019-03-16T10:56:31.839Z,0.80
2019-03-16T10:58:59.549Z,0.40
2019-03-16T11:01:27.663Z,1.40
2019-03-16T11:03:55.387Z,0.80
2019-03-16T11:06:23.157Z,0.40
2019-03-16T11:08:51.116Z,2.20
2019-03-16T11:11:20.830Z,0.00
2019-03-16T11:13:51.350Z,1.00
2019-03-16T11:16:21.426Z,0.60
2019-03-16T11:18:49.214Z,1.00
2019-03-16T11:21:19.177Z,1.00
2019-03-16T11:23:54.160Z,1.00
2019-03-16T11:26:21.886Z,1.00
2019-03-16T11:29:08.974Z,1.00
2019-03-16T11:31:36.778Z,0.00
2019-03-16T11:34:06.581Z,0.00
2019-03-16T11:36:34.359Z,1.00
2019-03-16T11:39:02.567Z,0.00
2019-03-16T11:41:30.534Z,1.00
2019-03-16T11:44:00.857Z,0.20
2019-03-16T11:46:29.587Z,3.00
2019-03-16T11:48:57.304Z,1.00
2019-03-16T11:51:27.364Z,1.80
2019-03-16T11:53:55.416Z,1.00
2019-03-16T11:56:23.214Z,1.00
2019-03-16T11:58:50.885Z,0.00
2019-03-16T12:01:19.096Z,0.00
2019-03-16T12:03:51.862Z,1.00
2019-03-16T12:06:19.661Z,0.60
2019-03-16T12:08:47.781Z,1.00
2019-03-16T12:11:18.317Z,1.00
2019-03-16T12:13:46.118Z,0.00
2019-03-16T12:16:14.238Z,1.00
2019-03-16T12:18:41.942Z,3.00
2019-03-16T12:21:09.721Z,0.80
2019-03-16T12:23:37.829Z,1.00
2019-03-16T12:26:07.570Z,3.00
2019-03-16T12:28:36.091Z,1.00
2019-03-16T12:31:04.356Z,2.60
2019-03-16T12:33:32.180Z,2.40
2019-03-16T12:35:59.871Z,1.00
2019-03-16T12:38:29.738Z,0.00
2019-03-16T12:40:59.402Z,1.00
2019-03-16T12:43:29.088Z,3.00
2019-03-16T12:46:00.179Z,1.00
2019-03-16T12:48:27.937Z,1.00
2019-03-16T12:50:55.724Z,3.00
2019-03-16T12:53:23.446Z,1.00
2019-03-16T12:55:51.257Z,1.40
2019-03-16T12:58:21.379Z,3.80
2019-03-16T13:00:53.291Z,0.20
2019-03-16T13:03:18.531Z,1.00
2019-03-16T13:05:50.516Z,0.40
2019-03-16T13:08:18.713Z,2.20
2019-03-16T13:10:46.459Z,0.00
2019-03-16T13:13:17.972Z,0.80
2019-03-16T13:15:45.776Z,1.00
2019-03-16T13:18:14.695Z,1.00
2019-03-16T13:20:43.018Z,0.60
2019-03-16T13:23:10.838Z,0.40
2019-03-16T13:25:41.545Z,0.40
2019-03-16T13:28:13.802Z,3.00
2019-03-16T13:38:44.181Z,0.20
2019-03-16T13:44:03.358Z,0.20
2019-03-16T13:46:31.158Z,1.00
2019-03-16T13:49:17.619Z,0.40
2019-03-16T13:51:45.525Z,1.00
2019-03-16T13:54:32.046Z,0.00
2019-03-16T13:56:59.903Z,1.00
2019-03-16T13:59:27.781Z,0.00
2019-03-16T14:02:14.247Z,1.00
2019-03-16T14:04:42.348Z,1.80
2019-03-16T14:07:10.223Z,0.40
2019-03-16T14:10:04.290Z,0.60
2019-03-16T14:15:37.234Z,3.00
2019-03-16T14:18:07.422Z,1.80
2019-03-16T14:21:06.306Z,1.00
2019-03-16T14:26:35.872Z,0.80
2019-03-16T14:29:03.570Z,2.60
2019-03-16T14:31:31.766Z,1.40
2019-03-16T14:33:59.453Z,0.40
2019-03-16T14:36:27.229Z,1.00
2019-03-16T14:38:55.285Z,2.20
2019-03-16T14:41:24.350Z,2.60
2019-03-16T14:43:58.834Z,3.00
2019-03-16T14:46:26.581Z,1.40
2019-03-16T14:48:54.300Z,1.00
2019-03-16T14:51:25.045Z,3.20
2019-03-16T14:53:54.663Z,1.00
2019-03-16T14:56:22.425Z,2.60
2019-03-16T14:58:53.405Z,3.40
2019-03-16T15:01:21.163Z,3.00
2019-03-16T15:03:48.946Z,1.00
2019-03-16T15:06:16.989Z,2.20
2019-03-16T15:08:44.751Z,1.00
2019-03-16T15:11:12.489Z,1.40
2019-03-16T15:13:42.853Z,4.00
2019-03-16T15:16:10.645Z,3.00
2019-03-16T15:18:45.469Z,3.00
2019-03-16T15:21:13.512Z,2.20
2019-03-16T15:23:42.435Z,3.00
2019-03-16T15:26:10.214Z,0.00
2019-03-16T15:28:40.010Z,6.00
2019-03-16T15:31:07.776Z,3.00
2019-03-16T15:33:35.916Z,4.00
2019-03-16T15:36:03.681Z,3.00
2019-03-16T15:38:37.171Z,3.00
2019-03-16T15:41:06.825Z,0.00
2019-03-16T15:43:34.546Z,0.60
2019-03-16T15:46:02.353Z,4.60
2019-03-16T15:48:30.501Z,1.00
2019-03-16T15:50:58.547Z,3.00
2019-03-16T15:53:29.264Z,0.80
2019-03-16T15:55:57.398Z,0.20
2019-03-16T15:58:25.161Z,2.80
2019-03-16T16:01:03.632Z,4.00
2019-03-16T16:03:28.653Z,1.00
2019-03-16T16:05:57.470Z,3.60
2019-03-16T16:08:25.163Z,1.00
2019-03-16T16:11:00.845Z,0.00
2019-03-16T16:13:25.754Z,1.00
2019-03-16T16:16:01.036Z,1.00
2019-03-16T16:18:29.097Z,1.00
2019-03-16T16:20:57.197Z,2.60
2019-03-16T16:23:24.968Z,1.00
2019-03-16T16:25:53.140Z,0.80
2019-03-16T16:28:22.558Z,1.00
2019-03-16T16:30:50.713Z,1.00
2019-03-16T16:33:21.439Z,1.80
2019-03-16T16:35:52.363Z,1.00
2019-03-16T16:38:20.314Z,1.00
2019-03-16T16:40:53.546Z,3.00
2019-03-16T16:43:21.274Z,1.00
2019-03-16T16:45:49.025Z,1.00
2019-03-16T16:48:18.782Z,1.00
2019-03-16T16:50:46.592Z,2.20
2019-03-16T16:53:14.405Z,1.00
2019-03-16T16:55:42.384Z,1.00
2019-03-16T16:58:11.255Z,2.20
2019-03-16T17:00:41.759Z,1.00
2019-03-16T17:03:09.935Z,4.80
2019-03-16T17:05:37.723Z,3.00
2019-03-16T17:08:08.752Z,3.00
2019-03-16T17:10:36.800Z,4.00
2019-03-16T17:13:04.609Z,1.00
2019-03-16T17:15:32.351Z,1.40
2019-03-16T17:18:00.453Z,2.20
2019-03-16T17:20:31.208Z,6.60
2019-03-16T17:22:59.598Z,3.00
2019-03-16T17:25:30.744Z,3.40
2019-03-16T17:27:59.621Z,3.80
2019-03-16T17:30:34.813Z,3.00
2019-03-16T17:33:07.320Z,1.00
2019-03-16T17:35:35.170Z,3.60
2019-03-16T17:38:02.907Z,4.00
2019-03-16T17:40:39.357Z,2.60
2019-03-16T17:43:04.450Z,4.00
2019-03-16T17:45:32.481Z,1.80
2019-03-16T17:48:02.050Z,1.40
2019-03-16T17:50:29.848Z,3.00
2019-03-16T17:52:57.640Z,1.80
2019-03-16T17:55:25.877Z,6.80
2019-03-16T17:57:53.661Z,1.00
2019-03-16T18:00:21.416Z,1.40
2019-03-16T18:02:52.744Z,1.00
2019-03-16T18:05:24.238Z,3.40
2019-03-16T18:07:51.897Z,3.00
2019-03-16T18:10:20.011Z,3.00
2019-03-16T18:12:47.698Z,1.40
2019-03-16T18:15:17.223Z,2.20
2019-03-16T18:17:45.187Z,5.20
2019-03-16T18:20:17.423Z,1.00
2019-03-16T18:22:44.654Z,3.00
2019-03-16T18:25:12.783Z,3.20
2019-03-16T18:27:40.590Z,0.80
2019-03-16T18:30:08.354Z,4.00
2019-03-16T18:32:36.540Z,1.00
2019-03-16T18:35:04.634Z,1.80
2019-03-16T18:37:35.461Z,3.40
2019-03-16T18:40:05.205Z,3.00
2019-03-16T18:42:32.973Z,1.00
2019-03-16T18:45:00.672Z,1.00
2019-03-16T18:47:30.517Z,1.00
2019-03-16T18:49:58.258Z,3.00
2019-03-16T18:52:28.312Z,0.00
2019-03-16T18:54:57.457Z,2.60
2019-03-16T18:57:25.181Z,2.20
2019-03-16T18:59:53.198Z,5.60
2019-03-16T19:02:21.425Z,2.60
2019-03-16T19:04:52.281Z,3.00
2019-03-16T19:07:21.321Z,3.40
2019-03-16T19:10:02.931Z,7.00
2019-03-16T19:12:24.915Z,3.40
2019-03-16T19:14:52.969Z,3.00
2019-03-16T19:17:20.676Z,2.20
2019-03-16T19:19:50.096Z,3.20
2019-03-16T19:22:18.195Z,3.20
2019-03-16T19:24:48.150Z,1.00
2019-03-16T19:27:18.964Z,3.00
2019-03-16T19:29:46.058Z,4.80
2019-03-16T19:32:18.199Z,3.80
2019-03-16T19:34:48.007Z,2.20
2019-03-16T19:37:16.093Z,3.80
2019-03-16T19:39:45.495Z,6.00
2019-03-16T19:42:15.256Z,3.00
2019-03-16T19:44:43.633Z,5.20
2019-03-16T19:47:22.444Z,3.00
2019-03-16T19:49:50.219Z,8.20
2019-03-16T19:52:21.844Z,6.80
2019-03-16T19:54:52.813Z,17.20
2019-03-16T19:57:20.580Z,15.80
2019-03-16T19:59:48.286Z,15.40
2019-03-16T20:02:18.495Z,15.60
2019-03-16T20:04:46.174Z,7.40
2019-03-16T20:07:19.399Z,3.00
2019-03-16T20:09:46.572Z,0.20
2019-03-16T20:12:14.371Z,3.00
2019-03-16T20:14:44.796Z,6.00
2019-03-16T20:17:11.857Z,3.00
2019-03-16T20:22:24.786Z,6.20
2019-03-16T20:25:13.609Z,4.00
2019-03-16T20:27:30.695Z,3.20
2019-03-16T20:30:25.834Z,4.00
2019-03-16T20:32:50.275Z,1.00
2019-03-16T20:35:34.764Z,1.40
2019-03-16T20:38:02.520Z,3.40
2019-03-16T20:40:50.558Z,5.80
2019-03-16T20:43:18.895Z,5.20
2019-03-16T20:45:52.664Z,6.00
2019-03-16T20:48:20.445Z,4.00
2019-03-16T20:51:06.865Z,0.00
2019-03-16T20:53:34.772Z,5.20
2019-03-16T20:56:21.298Z,4.40
2019-03-16T20:58:49.031Z,2.60
2019-03-16T21:01:16.814Z,6.40
2019-03-16T21:04:04.211Z,6.00
2019-03-16T21:06:39.357Z,1.80
2019-03-16T21:09:25.780Z,2.60
2019-03-16T21:14:46.421Z,1.00
2019-03-16T21:17:35.813Z,3.60
2019-03-16T21:20:22.333Z,3.00
2019-03-16T21:22:50.153Z,2.60
2019-03-16T21:25:36.579Z,4.80
2019-03-16T21:28:04.545Z,0.80
2019-03-16T21:30:52.123Z,3.00
2019-03-16T21:33:29.614Z,2.20
2019-03-16T21:35:49.608Z,4.00
2019-03-16T21:38:20.497Z,3.00
2019-03-16T21:40:51.358Z,4.00
2019-03-16T21:43:19.364Z,2.20
2019-03-16T21:45:48.274Z,3.20
2019-03-16T21:48:18.730Z,2.80
2019-03-16T21:50:47.557Z,1.00
2019-03-16T21:53:15.363Z,1.00
2019-03-16T21:55:49.177Z,3.60
2019-03-16T21:58:18.711Z,1.40
2019-03-16T22:00:46.806Z,4.00
2019-03-16T22:03:41.715Z,5.60
2019-03-16T22:06:02.739Z,1.80
2019-03-16T22:11:37.198Z,0.00
2019-03-16T22:14:09.966Z,3.00
2019-03-16T22:16:56.482Z,3.00
2019-03-16T22:19:42.912Z,1.40
2019-03-16T22:22:29.358Z,1.40
2019-03-16T22:28:02.383Z,4.00
2019-03-16T22:30:30.305Z,0.80
2019-03-16T22:33:22.951Z,1.80
2019-03-16T22:36:09.348Z,3.20
2019-03-16T22:38:55.836Z,4.00
2019-03-16T22:41:23.692Z,3.20
2019-03-16T22:44:10.178Z,1.40
2019-03-16T22:46:40.251Z,3.40
2019-03-16T22:52:01.997Z,2.20
2019-03-16T22:54:48.436Z,1.00
2019-03-16T22:57:36.013Z,4.00
2019-03-16T23:00:04.066Z,1.00
2019-03-16T23:02:31.766Z,3.80
2019-03-16T23:04:59.915Z,3.20
2019-03-16T23:07:27.731Z,3.00
2019-03-16T23:09:55.447Z,0.00
2019-03-16T23:12:26.387Z,1.00
2019-03-16T23:14:54.221Z,1.00
2019-03-16T23:17:28.040Z,1.80
2019-03-16T23:19:58.749Z,3.00
2019-03-16T23:25:31.675Z,1.00
2019-03-16T23:30:52.314Z,2.60
2019-03-16T23:36:12.250Z,1.40
2019-03-16T23:38:42.640Z,0.00
2019-03-16T23:41:29.123Z,3.00
2019-03-16T23:47:03.756Z,3.60
2019-03-16T23:49:31.663Z,1.00
2019-03-16T23:52:30.321Z,3.00
2019-03-16T23:55:06.247Z,2.60
2019-03-16T23:57:52.669Z,1.00
